sensor_id;sensor_type;location;lat;lon;timestamp;pressure;altitude;pressure_sealevel;temperature;humidity
20015;BME280;61787;42.022;23.078;2022-10-23T00:00:56;97376.53;;;11.81;81.84
20015;BME280;61787;42.022;23.078;2022-10-23T00:01:57;97371.81;;;11.78;81.96
20015;BME280;61787;42.022;23.078;2022-10-23T00:02:59;97363.44;;;11.79;81.51
20015;BME280;61787;42.022;23.078;2022-10-23T00:04:04;97369.56;;;11.80;82.15
20015;BME280;61787;42.022;23.078;2022-10-23T00:05:06;97360.94;;;11.74;82.01
20015;BME280;61787;42.022;23.078;2022-10-23T00:06:08;97364.69;;;11.82;81.75
20015;BME280;61787;42.022;23.078;2022-10-23T00:07:10;97371.25;;;11.93;81.71
20015;BME280;61787;42.022;23.078;2022-10-23T00:08:12;97368.94;;;12.04;80.96
20015;BME280;61787;42.022;23.078;2022-10-23T00:09:15;97360.69;;;12.09;80.62
20015;BME280;61787;42.022;23.078;2022-10-23T00:10:19;97362.38;;;12.13;80.23
20015;BME280;61787;42.022;23.078;2022-10-23T00:11:23;97357.91;;;12.17;79.79
20015;BME280;61787;42.022;23.078;2022-10-23T00:12:26;97371.16;;;12.22;80.20
20015;BME280;61787;42.022;23.078;2022-10-23T00:13:28;97365.59;;;12.27;79.56
20015;BME280;61787;42.022;23.078;2022-10-23T00:14:30;97366.28;;;12.36;79.23
20015;BME280;61787;42.022;23.078;2022-10-23T00:15:34;97363.84;;;12.44;78.56
20015;BME280;61787;42.022;23.078;2022-10-23T00:16:36;97364.97;;;12.43;78.72
20015;BME280;61787;42.022;23.078;2022-10-23T00:17:37;97355.78;;;12.44;79.02
20015;BME280;61787;42.022;23.078;2022-10-23T00:18:40;97372.63;;;12.53;79.03
20015;BME280;61787;42.022;23.078;2022-10-23T00:19:41;97365.81;;;12.55;78.26
20015;BME280;61787;42.022;23.078;2022-10-23T00:20:43;97371.41;;;12.62;78.05
20015;BME280;61787;42.022;23.078;2022-10-23T00:21:45;97369.31;;;12.68;77.62
20015;BME280;61787;42.022;23.078;2022-10-23T00:22:46;97368.09;;;12.65;77.37
20015;BME280;61787;42.022;23.078;2022-10-23T00:23:48;97360.34;;;12.64;77.09
20015;BME280;61787;42.022;23.078;2022-10-23T00:24:50;97357.44;;;12.69;76.97
20015;BME280;61787;42.022;23.078;2022-10-23T00:25:52;97357.84;;;12.59;77.38
20015;BME280;61787;42.022;23.078;2022-10-23T00:26:53;97367.34;;;12.44;78.28
20015;BME280;61787;42.022;23.078;2022-10-23T00:27:55;97361.47;;;12.30;78.96
20015;BME280;61787;42.022;23.078;2022-10-23T00:28:56;97354.22;;;12.22;79.21
20015;BME280;61787;42.022;23.078;2022-10-23T00:29:58;97350.84;;;12.13;79.41
20015;BME280;61787;42.022;23.078;2022-10-23T00:31:02;97360.56;;;12.05;80.17
20015;BME280;61787;42.022;23.078;2022-10-23T00:32:03;97350.84;;;11.92;80.73
20015;BME280;61787;42.022;23.078;2022-10-23T00:33:05;97342.72;;;11.80;81.38
20015;BME280;61787;42.022;23.078;2022-10-23T00:34:07;97361.59;;;11.92;81.11
20015;BME280;61787;42.022;23.078;2022-10-23T00:35:09;97367.50;;;12.06;79.98
20015;BME280;61787;42.022;23.078;2022-10-23T00:36:13;97375.63;;;12.18;80.05
20015;BME280;61787;42.022;23.078;2022-10-23T00:37:16;97364.34;;;12.25;78.84
20015;BME280;61787;42.022;23.078;2022-10-23T00:38:17;97363.81;;;12.31;78.44
20015;BME280;61787;42.022;23.078;2022-10-23T00:39:19;97358.22;;;12.36;78.93
20015;BME280;61787;42.022;23.078;2022-10-23T00:40:20;97363.16;;;12.34;77.92
20015;BME280;61787;42.022;23.078;2022-10-23T00:41:25;97370.75;;;12.32;77.54
20015;BME280;61787;42.022;23.078;2022-10-23T00:42:32;97372.81;;;12.35;77.31
20015;BME280;61787;42.022;23.078;2022-10-23T00:43:52;97367.88;;;12.37;77.84
20015;BME280;61787;42.022;23.078;2022-10-23T00:45:57;97364.97;;;12.43;77.12
20015;BME280;61787;42.022;23.078;2022-10-23T00:46:59;97359.25;;;12.44;77.00
20015;BME280;61787;42.022;23.078;2022-10-23T00:48:01;97357.38;;;12.45;77.05
20015;BME280;61787;42.022;23.078;2022-10-23T00:49:04;97363.53;;;12.45;76.64
20015;BME280;61787;42.022;23.078;2022-10-23T00:50:06;97356.91;;;12.43;76.28
20015;BME280;61787;42.022;23.078;2022-10-23T00:51:08;97364.25;;;12.33;76.84
20015;BME280;61787;42.022;23.078;2022-10-23T00:52:11;97361.72;;;12.16;77.19
20015;BME280;61787;42.022;23.078;2022-10-23T00:53:14;97360.00;;;12.12;77.60
20015;BME280;61787;42.022;23.078;2022-10-23T00:54:21;97366.84;;;12.09;77.65
20015;BME280;61787;42.022;23.078;2022-10-23T00:55:26;97367.25;;;11.99;78.17
20015;BME280;61787;42.022;23.078;2022-10-23T00:56:29;97366.97;;;11.92;78.24
20015;BME280;61787;42.022;23.078;2022-10-23T00:57:32;97357.81;;;11.93;79.15
20015;BME280;61787;42.022;23.078;2022-10-23T00:58:33;97361.88;;;11.99;78.56
20015;BME280;61787;42.022;23.078;2022-10-23T00:59:35;97359.78;;;12.05;78.16
20015;BME280;61787;42.022;23.078;2022-10-23T01:00:51;97355.81;;;12.02;78.55
20015;BME280;61787;42.022;23.078;2022-10-23T01:01:54;97359.38;;;11.94;79.15
20015;BME280;61787;42.022;23.078;2022-10-23T01:02:57;97360.41;;;11.81;78.66
20015;BME280;61787;42.022;23.078;2022-10-23T01:04:00;97358.81;;;11.80;78.83
20015;BME280;61787;42.022;23.078;2022-10-23T01:05:02;97358.81;;;11.80;78.82
20015;BME280;61787;42.022;23.078;2022-10-23T01:06:13;97363.94;;;11.73;79.53
20015;BME280;61787;42.022;23.078;2022-10-23T01:07:24;97364.44;;;11.66;80.01
20015;BME280;61787;42.022;23.078;2022-10-23T01:08:36;97367.31;;;11.61;80.75
20015;BME280;61787;42.022;23.078;2022-10-23T01:10:59;97362.91;;;11.57;79.97
20015;BME280;61787;42.022;23.078;2022-10-23T01:13:11;97363.19;;;11.34;82.49
20015;BME280;61787;42.022;23.078;2022-10-23T01:16:59;97379.91;;;11.02;84.30
20015;BME280;61787;42.022;23.078;2022-10-23T01:20:50;97361.19;;;10.85;84.76
20015;BME280;61787;42.022;23.078;2022-10-23T01:22:21;97365.63;;;10.81;86.09
20015;BME280;61787;42.022;23.078;2022-10-23T01:25:57;97389.69;;;10.98;84.83
20015;BME280;61787;42.022;23.078;2022-10-23T01:28:13;97387.88;;;10.81;84.46
20015;BME280;61787;42.022;23.078;2022-10-23T01:29:25;97389.63;;;10.68;84.97
20015;BME280;61787;42.022;23.078;2022-10-23T01:30:32;97383.34;;;10.64;85.26
20015;BME280;61787;42.022;23.078;2022-10-23T01:32:11;97385.19;;;10.73;85.65
20015;BME280;61787;42.022;23.078;2022-10-23T01:33:22;97380.97;;;10.72;84.45
20015;BME280;61787;42.022;23.078;2022-10-23T01:34:45;97382.22;;;10.65;85.86
20015;BME280;61787;42.022;23.078;2022-10-23T01:35:51;97382.53;;;10.64;86.57
20015;BME280;61787;42.022;23.078;2022-10-23T01:36:56;97383.97;;;10.61;86.35
20015;BME280;61787;42.022;23.078;2022-10-23T01:38:13;97371.03;;;10.63;86.15
20015;BME280;61787;42.022;23.078;2022-10-23T01:39:24;97375.13;;;10.69;85.99
20015;BME280;61787;42.022;23.078;2022-10-23T01:40:36;97378.41;;;10.75;85.01
20015;BME280;61787;42.022;23.078;2022-10-23T01:41:45;97386.78;;;10.74;85.36
20015;BME280;61787;42.022;23.078;2022-10-23T01:42:53;97398.44;;;10.78;85.71
20015;BME280;61787;42.022;23.078;2022-10-23T01:44:02;97394.03;;;10.73;85.66
20015;BME280;61787;42.022;23.078;2022-10-23T01:45:11;97401.00;;;10.65;85.36
20015;BME280;61787;42.022;23.078;2022-10-23T01:46:16;97403.69;;;10.65;85.04
20015;BME280;61787;42.022;23.078;2022-10-23T01:47:21;97400.84;;;10.62;85.62
20015;BME280;61787;42.022;23.078;2022-10-23T01:48:27;97404.31;;;10.54;86.60
20015;BME280;61787;42.022;23.078;2022-10-23T01:49:30;97412.50;;;10.57;86.57
20015;BME280;61787;42.022;23.078;2022-10-23T01:50:34;97410.16;;;10.64;85.72
20015;BME280;61787;42.022;23.078;2022-10-23T01:51:38;97406.19;;;10.71;85.74
20015;BME280;61787;42.022;23.078;2022-10-23T01:52:40;97399.09;;;10.75;85.67
20015;BME280;61787;42.022;23.078;2022-10-23T01:53:43;97410.56;;;10.92;84.41
20015;BME280;61787;42.022;23.078;2022-10-23T01:54:48;97401.56;;;10.97;84.49
20015;BME280;61787;42.022;23.078;2022-10-23T01:55:52;97408.78;;;11.05;84.03
20015;BME280;61787;42.022;23.078;2022-10-23T01:56:56;97401.22;;;11.07;83.63
20015;BME280;61787;42.022;23.078;2022-10-23T01:58:01;97399.28;;;11.16;83.37
20015;BME280;61787;42.022;23.078;2022-10-23T01:59:08;97395.19;;;11.10;83.10
20015;BME280;61787;42.022;23.078;2022-10-23T02:00:15;97387.63;;;11.12;84.11
20015;BME280;61787;42.022;23.078;2022-10-23T02:01:19;97403.38;;;11.22;83.62
20015;BME280;61787;42.022;23.078;2022-10-23T02:02:22;97398.28;;;11.29;82.61
20015;BME280;61787;42.022;23.078;2022-10-23T02:03:27;97403.94;;;11.36;82.85
20015;BME280;61787;42.022;23.078;2022-10-23T02:04:33;97394.28;;;11.35;82.64
20015;BME280;61787;42.022;23.078;2022-10-23T02:05:36;97401.38;;;11.40;82.85
20015;BME280;61787;42.022;23.078;2022-10-23T02:06:40;97396.16;;;11.43;82.10
20015;BME280;61787;42.022;23.078;2022-10-23T02:07:42;97394.41;;;11.47;82.13
20015;BME280;61787;42.022;23.078;2022-10-23T02:08:45;97402.00;;;11.45;82.58
20015;BME280;61787;42.022;23.078;2022-10-23T02:09:46;97396.19;;;11.35;82.75
20015;BME280;61787;42.022;23.078;2022-10-23T02:10:53;97399.59;;;11.23;83.66
20015;BME280;61787;42.022;23.078;2022-10-23T02:12:17;97396.78;;;11.11;83.92
20015;BME280;61787;42.022;23.078;2022-10-23T02:13:31;97402.00;;;10.99;84.59
20015;BME280;61787;42.022;23.078;2022-10-23T02:15:47;97415.50;;;10.82;85.76
20015;BME280;61787;42.022;23.078;2022-10-23T02:16:51;97402.88;;;10.82;85.87
20015;BME280;61787;42.022;23.078;2022-10-23T02:20:21;97401.03;;;10.48;88.09
20015;BME280;61787;42.022;23.078;2022-10-23T02:21:32;97403.56;;;10.36;88.60
20015;BME280;61787;42.022;23.078;2022-10-23T02:22:37;97411.13;;;10.34;88.84
20015;BME280;61787;42.022;23.078;2022-10-23T02:23:50;97414.59;;;10.43;89.19
20015;BME280;61787;42.022;23.078;2022-10-23T02:25:02;97408.28;;;10.56;88.27
20015;BME280;61787;42.022;23.078;2022-10-23T02:26:09;97408.09;;;10.70;87.07
20015;BME280;61787;42.022;23.078;2022-10-23T02:27:20;97417.69;;;10.80;86.95
20015;BME280;61787;42.022;23.078;2022-10-23T02:28:29;97415.78;;;10.89;84.83
20015;BME280;61787;42.022;23.078;2022-10-23T02:30:44;97405.63;;;11.03;83.15
20015;BME280;61787;42.022;23.078;2022-10-23T02:31:49;97410.81;;;11.08;82.98
20015;BME280;61787;42.022;23.078;2022-10-23T02:32:52;97414.13;;;11.13;82.95
20015;BME280;61787;42.022;23.078;2022-10-23T02:33:55;97401.97;;;11.16;82.69
20015;BME280;61787;42.022;23.078;2022-10-23T02:34:57;97407.94;;;11.22;82.26
20015;BME280;61787;42.022;23.078;2022-10-23T02:35:58;97406.50;;;11.24;81.80
20015;BME280;61787;42.022;23.078;2022-10-23T02:37:01;97400.50;;;11.27;81.65
20015;BME280;61787;42.022;23.078;2022-10-23T02:38:02;97405.34;;;11.34;81.81
20015;BME280;61787;42.022;23.078;2022-10-23T02:39:04;97408.19;;;11.37;81.01
20015;BME280;61787;42.022;23.078;2022-10-23T02:40:07;97411.81;;;11.41;81.68
20015;BME280;61787;42.022;23.078;2022-10-23T02:41:46;97408.03;;;11.42;81.21
20015;BME280;61787;42.022;23.078;2022-10-23T02:43:07;97406.91;;;11.43;80.91
20015;BME280;61787;42.022;23.078;2022-10-23T02:45:36;97408.47;;;11.44;81.12
20015;BME280;61787;42.022;23.078;2022-10-23T02:49:24;97409.47;;;11.31;81.01
20015;BME280;61787;42.022;23.078;2022-10-23T02:50:35;97401.00;;;11.21;82.26
20015;BME280;61787;42.022;23.078;2022-10-23T02:54:23;97421.03;;;10.59;85.84
20015;BME280;61787;42.022;23.078;2022-10-23T02:56:58;97421.84;;;10.43;87.55
20015;BME280;61787;42.022;23.078;2022-10-23T02:59:19;97415.56;;;10.30;88.88
20015;BME280;61787;42.022;23.078;2022-10-23T03:00:26;97408.59;;;10.29;88.77
20015;BME280;61787;42.022;23.078;2022-10-23T03:01:48;97402.94;;;10.39;88.88
20015;BME280;61787;42.022;23.078;2022-10-23T03:02:57;97408.94;;;10.36;89.20
20015;BME280;61787;42.022;23.078;2022-10-23T03:04:02;97404.66;;;10.35;89.52
20015;BME280;61787;42.022;23.078;2022-10-23T03:05:09;97408.78;;;10.41;89.13
20015;BME280;61787;42.022;23.078;2022-10-23T03:06:12;97402.63;;;10.41;90.03
20015;BME280;61787;42.022;23.078;2022-10-23T03:07:17;97404.81;;;10.47;89.68
20015;BME280;61787;42.022;23.078;2022-10-23T03:08:19;97410.63;;;10.58;89.36
20015;BME280;61787;42.022;23.078;2022-10-23T03:09:21;97400.06;;;10.61;88.46
20015;BME280;61787;42.022;23.078;2022-10-23T03:10:23;97420.75;;;10.61;89.17
20015;BME280;61787;42.022;23.078;2022-10-23T03:11:24;97425.59;;;10.67;88.72
20015;BME280;61787;42.022;23.078;2022-10-23T03:12:26;97422.75;;;10.73;88.26
20015;BME280;61787;42.022;23.078;2022-10-23T03:13:28;97429.34;;;10.84;87.96
20015;BME280;61787;42.022;23.078;2022-10-23T03:14:29;97424.75;;;10.93;87.75
20015;BME280;61787;42.022;23.078;2022-10-23T03:15:31;97425.41;;;10.90;86.56
20015;BME280;61787;42.022;23.078;2022-10-23T03:16:33;97435.66;;;10.96;86.72
20015;BME280;61787;42.022;23.078;2022-10-23T03:17:34;97432.31;;;10.99;86.92
20015;BME280;61787;42.022;23.078;2022-10-23T03:18:36;97432.94;;;11.05;86.46
20015;BME280;61787;42.022;23.078;2022-10-23T03:19:38;97437.84;;;11.03;85.24
20015;BME280;61787;42.022;23.078;2022-10-23T03:20:39;97427.75;;;11.00;85.55
20015;BME280;61787;42.022;23.078;2022-10-23T03:21:41;97430.75;;;11.07;85.74
20015;BME280;61787;42.022;23.078;2022-10-23T03:22:43;97431.81;;;11.15;85.09
20015;BME280;61787;42.022;23.078;2022-10-23T03:23:45;97430.38;;;11.17;85.18
20015;BME280;61787;42.022;23.078;2022-10-23T03:24:47;97424.84;;;11.22;84.37
20015;BME280;61787;42.022;23.078;2022-10-23T03:25:48;97431.31;;;11.21;84.67
20015;BME280;61787;42.022;23.078;2022-10-23T03:26:50;97428.97;;;11.11;84.56
20015;BME280;61787;42.022;23.078;2022-10-23T03:27:51;97423.31;;;11.04;85.24
20015;BME280;61787;42.022;23.078;2022-10-23T03:28:53;97434.03;;;11.04;85.42
20015;BME280;61787;42.022;23.078;2022-10-23T03:29:55;97435.97;;;10.95;85.74
20015;BME280;61787;42.022;23.078;2022-10-23T03:30:56;97437.88;;;10.86;86.85
20015;BME280;61787;42.022;23.078;2022-10-23T03:31:58;97439.34;;;10.66;87.06
20015;BME280;61787;42.022;23.078;2022-10-23T03:33:00;97434.13;;;10.52;88.52
20015;BME280;61787;42.022;23.078;2022-10-23T03:34:01;97441.41;;;10.43;89.23
20015;BME280;61787;42.022;23.078;2022-10-23T03:35:08;97443.28;;;10.34;89.92
20015;BME280;61787;42.022;23.078;2022-10-23T03:36:10;97440.91;;;10.33;89.81
20015;BME280;61787;42.022;23.078;2022-10-23T03:37:11;97439.34;;;10.32;89.55
20015;BME280;61787;42.022;23.078;2022-10-23T03:38:13;97443.63;;;10.24;90.34
20015;BME280;61787;42.022;23.078;2022-10-23T03:39:15;97437.31;;;10.20;91.32
20015;BME280;61787;42.022;23.078;2022-10-23T03:40:17;97431.31;;;10.32;89.74
20015;BME280;61787;42.022;23.078;2022-10-23T03:41:19;97438.25;;;10.41;89.64
20015;BME280;61787;42.022;23.078;2022-10-23T03:42:20;97439.84;;;10.51;88.42
20015;BME280;61787;42.022;23.078;2022-10-23T03:43:22;97436.03;;;10.60;88.34
20015;BME280;61787;42.022;23.078;2022-10-23T03:44:26;97439.66;;;10.64;87.58
20015;BME280;61787;42.022;23.078;2022-10-23T03:45:27;97439.19;;;10.71;86.97
20015;BME280;61787;42.022;23.078;2022-10-23T03:46:29;97439.63;;;10.73;87.50
20015;BME280;61787;42.022;23.078;2022-10-23T03:47:31;97439.16;;;10.80;86.29
20015;BME280;61787;42.022;23.078;2022-10-23T03:48:35;97437.88;;;10.86;86.18
20015;BME280;61787;42.022;23.078;2022-10-23T03:49:38;97442.00;;;10.92;84.86
20015;BME280;61787;42.022;23.078;2022-10-23T03:50:40;97444.03;;;10.95;85.24
20015;BME280;61787;42.022;23.078;2022-10-23T03:51:42;97444.50;;;10.97;84.51
20015;BME280;61787;42.022;23.078;2022-10-23T03:52:45;97447.81;;;11.02;84.70
20015;BME280;61787;42.022;23.078;2022-10-23T03:53:46;97445.13;;;11.02;84.51
20015;BME280;61787;42.022;23.078;2022-10-23T03:54:48;97440.41;;;10.91;84.38
20015;BME280;61787;42.022;23.078;2022-10-23T03:55:50;97435.38;;;10.81;85.32
20015;BME280;61787;42.022;23.078;2022-10-23T03:56:53;97445.34;;;10.72;86.15
20015;BME280;61787;42.022;23.078;2022-10-23T03:57:58;97436.03;;;10.60;86.54
20015;BME280;61787;42.022;23.078;2022-10-23T03:59:00;97440.00;;;10.46;86.54
20015;BME280;61787;42.022;23.078;2022-10-23T04:00:03;97438.25;;;10.33;87.56
20015;BME280;61787;42.022;23.078;2022-10-23T04:01:06;97439.19;;;10.28;88.25
20015;BME280;61787;42.022;23.078;2022-10-23T04:02:07;97442.66;;;10.37;87.81
20015;BME280;61787;42.022;23.078;2022-10-23T04:03:09;97443.91;;;10.48;87.50
20015;BME280;61787;42.022;23.078;2022-10-23T04:04:11;97440.13;;;10.58;87.10
20015;BME280;61787;42.022;23.078;2022-10-23T04:05:13;97442.03;;;10.66;86.51
20015;BME280;61787;42.022;23.078;2022-10-23T04:06:15;97438.69;;;10.78;86.21
20015;BME280;61787;42.022;23.078;2022-10-23T04:07:17;97437.56;;;10.79;86.38
20015;BME280;61787;42.022;23.078;2022-10-23T04:08:18;97433.31;;;10.86;85.58
20015;BME280;61787;42.022;23.078;2022-10-23T04:09:20;97438.00;;;10.98;85.05
20015;BME280;61787;42.022;23.078;2022-10-23T04:10:22;97439.09;;;11.05;83.92
20015;BME280;61787;42.022;23.078;2022-10-23T04:11:24;97442.53;;;11.15;83.09
20015;BME280;61787;42.022;23.078;2022-10-23T04:12:25;97438.28;;;11.13;83.56
20015;BME280;61787;42.022;23.078;2022-10-23T04:13:27;97447.72;;;11.20;82.85
20015;BME280;61787;42.022;23.078;2022-10-23T04:14:29;97447.72;;;11.20;82.57
20015;BME280;61787;42.022;23.078;2022-10-23T04:15:30;97440.78;;;11.27;82.40
20015;BME280;61787;42.022;23.078;2022-10-23T04:16:32;97450.75;;;11.18;82.60
20015;BME280;61787;42.022;23.078;2022-10-23T04:17:33;97442.56;;;11.06;81.79
20015;BME280;61787;42.022;23.078;2022-10-23T04:18:35;97447.19;;;10.88;81.73
20015;BME280;61787;42.022;23.078;2022-10-23T04:19:37;97451.00;;;10.70;82.01
20015;BME280;61787;42.022;23.078;2022-10-23T04:20:38;97454.66;;;10.65;83.04
20015;BME280;61787;42.022;23.078;2022-10-23T04:21:40;97443.47;;;10.46;83.48
20015;BME280;61787;42.022;23.078;2022-10-23T04:22:42;97449.59;;;10.38;83.96
20015;BME280;61787;42.022;23.078;2022-10-23T04:23:44;97448.03;;;10.37;83.84
20015;BME280;61787;42.022;23.078;2022-10-23T04:24:46;97448.03;;;10.29;85.43
20015;BME280;61787;42.022;23.078;2022-10-23T04:25:48;97461.56;;;10.15;85.34
20015;BME280;61787;42.022;23.078;2022-10-23T04:26:50;97461.06;;;10.13;84.98
20015;BME280;61787;42.022;23.078;2022-10-23T04:27:52;97455.38;;;9.97;86.15
20015;BME280;61787;42.022;23.078;2022-10-23T04:28:54;97462.91;;;9.87;86.94
20015;BME280;61787;42.022;23.078;2022-10-23T04:29:55;97457.69;;;9.81;88.02
20015;BME280;61787;42.022;23.078;2022-10-23T04:30:59;97461.81;;;9.88;87.77
20015;BME280;61787;42.022;23.078;2022-10-23T04:32:01;97455.66;;;9.87;87.59
20015;BME280;61787;42.022;23.078;2022-10-23T04:33:02;97457.09;;;9.84;87.76
20015;BME280;61787;42.022;23.078;2022-10-23T04:34:04;97462.09;;;9.77;88.24
20015;BME280;61787;42.022;23.078;2022-10-23T04:35:11;97456.09;;;9.80;88.19
20015;BME280;61787;42.022;23.078;2022-10-23T04:36:14;97461.47;;;9.80;87.55
20015;BME280;61787;42.022;23.078;2022-10-23T04:37:15;97457.03;;;9.76;88.69
20015;BME280;61787;42.022;23.078;2022-10-23T04:38:19;97451.03;;;9.70;88.78
20015;BME280;61787;42.022;23.078;2022-10-23T04:39:23;97456.81;;;9.55;89.35
20015;BME280;61787;42.022;23.078;2022-10-23T04:40:24;97461.38;;;9.46;90.17
20015;BME280;61787;42.022;23.078;2022-10-23T04:41:26;97466.16;;;9.27;91.39
20015;BME280;61787;42.022;23.078;2022-10-23T04:42:28;97470.63;;;9.09;92.09
20015;BME280;61787;42.022;23.078;2022-10-23T04:43:29;97479.09;;;9.03;92.53
20015;BME280;61787;42.022;23.078;2022-10-23T04:44:31;97472.34;;;9.05;92.47
20015;BME280;61787;42.022;23.078;2022-10-23T04:45:33;97469.66;;;9.05;92.42
20015;BME280;61787;42.022;23.078;2022-10-23T04:46:38;97474.19;;;8.96;94.16
20015;BME280;61787;42.022;23.078;2022-10-23T04:47:40;97463.53;;;8.82;94.32
20015;BME280;61787;42.022;23.078;2022-10-23T04:48:42;97472.06;;;8.84;95.43
20015;BME280;61787;42.022;23.078;2022-10-23T04:49:43;97469.50;;;8.79;96.19
20015;BME280;61787;42.022;23.078;2022-10-23T04:50:54;97469.88;;;8.86;96.26
20015;BME280;61787;42.022;23.078;2022-10-23T04:51:56;97469.00;;;8.99;95.72
20015;BME280;61787;42.022;23.078;2022-10-23T04:53:00;97475.69;;;9.11;94.98
20015;BME280;61787;42.022;23.078;2022-10-23T04:54:03;97473.38;;;9.18;94.31
20015;BME280;61787;42.022;23.078;2022-10-23T04:55:07;97484.91;;;9.27;94.31
20015;BME280;61787;42.022;23.078;2022-10-23T04:56:13;97485.22;;;9.34;93.83
20015;BME280;61787;42.022;23.078;2022-10-23T04:57:15;97490.78;;;9.37;94.18
20015;BME280;61787;42.022;23.078;2022-10-23T04:58:17;97487.97;;;9.43;93.87
20015;BME280;61787;42.022;23.078;2022-10-23T04:59:19;97494.63;;;9.54;93.59
20015;BME280;61787;42.022;23.078;2022-10-23T05:00:20;97494.66;;;9.62;93.55
20015;BME280;61787;42.022;23.078;2022-10-23T05:01:27;97499.44;;;9.74;92.51
20015;BME280;61787;42.022;23.078;2022-10-23T05:02:31;97500.53;;;9.81;91.93
20015;BME280;61787;42.022;23.078;2022-10-23T05:03:36;97497.25;;;9.84;90.87
20015;BME280;61787;42.022;23.078;2022-10-23T05:04:38;97502.94;;;9.92;90.51
20015;BME280;61787;42.022;23.078;2022-10-23T05:05:41;97498.06;;;9.94;90.53
20015;BME280;61787;42.022;23.078;2022-10-23T05:06:44;97499.66;;;9.95;90.66
20015;BME280;61787;42.022;23.078;2022-10-23T05:07:46;97501.56;;;10.03;89.88
20015;BME280;61787;42.022;23.078;2022-10-23T05:08:47;97489.25;;;10.02;89.88
20015;BME280;61787;42.022;23.078;2022-10-23T05:09:49;97495.75;;;10.09;89.74
20015;BME280;61787;42.022;23.078;2022-10-23T05:10:51;97500.03;;;10.19;88.99
20015;BME280;61787;42.022;23.078;2022-10-23T05:11:53;97494.69;;;10.19;88.63
20015;BME280;61787;42.022;23.078;2022-10-23T05:12:57;97490.41;;;10.18;87.80
20015;BME280;61787;42.022;23.078;2022-10-23T05:14:01;97495.28;;;10.16;87.87
20015;BME280;61787;42.022;23.078;2022-10-23T05:15:03;97494.31;;;10.12;88.07
20015;BME280;61787;42.022;23.078;2022-10-23T05:16:27;97486.44;;;10.07;89.47
20015;BME280;61787;42.022;23.078;2022-10-23T05:17:34;97483.09;;;10.01;89.95
20015;BME280;61787;42.022;23.078;2022-10-23T05:18:42;97487.22;;;10.07;90.50
20015;BME280;61787;42.022;23.078;2022-10-23T05:19:50;97473.03;;;9.98;89.21
20015;BME280;61787;42.022;23.078;2022-10-23T05:20:58;97481.03;;;9.90;89.84
20015;BME280;61787;42.022;23.078;2022-10-23T05:22:01;97479.78;;;9.96;89.01
20015;BME280;61787;42.022;23.078;2022-10-23T05:23:06;97485.81;;;10.10;89.67
20015;BME280;61787;42.022;23.078;2022-10-23T05:24:10;97486.75;;;10.14;88.91
20015;BME280;61787;42.022;23.078;2022-10-23T05:25:12;97483.97;;;10.19;89.01
20015;BME280;61787;42.022;23.078;2022-10-23T05:26:14;97499.09;;;10.32;88.19
20015;BME280;61787;42.022;23.078;2022-10-23T05:27:15;97491.09;;;10.41;86.79
20015;BME280;61787;42.022;23.078;2022-10-23T05:28:17;97490.94;;;10.54;86.04
20015;BME280;61787;42.022;23.078;2022-10-23T05:29:21;97498.16;;;10.62;85.40
20015;BME280;61787;42.022;23.078;2022-10-23T05:30:23;97503.72;;;10.66;85.49
20015;BME280;61787;42.022;23.078;2022-10-23T05:31:24;97499.91;;;10.67;85.72
20015;BME280;61787;42.022;23.078;2022-10-23T05:32:28;97496.31;;;10.72;86.22
20015;BME280;61787;42.022;23.078;2022-10-23T05:33:31;97494.06;;;10.74;85.53
20015;BME280;61787;42.022;23.078;2022-10-23T05:34:35;97501.34;;;10.82;85.81
20015;BME280;61787;42.022;23.078;2022-10-23T05:35:41;97498.31;;;10.83;85.57
20015;BME280;61787;42.022;23.078;2022-10-23T05:36:48;97510.78;;;10.88;85.52
20015;BME280;61787;42.022;23.078;2022-10-23T05:37:52;97512.53;;;10.92;85.74
20015;BME280;61787;42.022;23.078;2022-10-23T05:38:55;97510.78;;;10.96;84.63
20015;BME280;61787;42.022;23.078;2022-10-23T05:39:57;97513.31;;;11.01;84.83
20015;BME280;61787;42.022;23.078;2022-10-23T05:41:01;97514.09;;;11.02;84.42
20015;BME280;61787;42.022;23.078;2022-10-23T05:42:04;97531.31;;;11.01;85.14
20015;BME280;61787;42.022;23.078;2022-10-23T05:43:06;97532.88;;;11.02;85.11
20015;BME280;61787;42.022;23.078;2022-10-23T05:44:08;97525.16;;;10.92;85.09
20015;BME280;61787;42.022;23.078;2022-10-23T05:45:11;97531.78;;;10.68;86.39
20015;BME280;61787;42.022;23.078;2022-10-23T05:46:13;97528.94;;;10.48;87.06
20015;BME280;61787;42.022;23.078;2022-10-23T05:47:14;97525.13;;;10.32;88.32
20015;BME280;61787;42.022;23.078;2022-10-23T05:48:16;97540.16;;;10.41;88.40
20015;BME280;61787;42.022;23.078;2022-10-23T05:49:34;97537.31;;;10.46;88.72
20015;BME280;61787;42.022;23.078;2022-10-23T05:50:36;97532.56;;;10.43;87.71
20015;BME280;61787;42.022;23.078;2022-10-23T05:51:38;97533.81;;;10.37;89.46
20015;BME280;61787;42.022;23.078;2022-10-23T05:52:40;97531.91;;;10.29;89.85
20015;BME280;61787;42.022;23.078;2022-10-23T05:53:43;97530.97;;;10.25;90.00
20015;BME280;61787;42.022;23.078;2022-10-23T05:54:44;97535.19;;;10.17;90.27
20015;BME280;61787;42.022;23.078;2022-10-23T05:55:46;97535.19;;;10.17;90.42
20015;BME280;61787;42.022;23.078;2022-10-23T05:56:48;97541.19;;;10.32;91.09
20015;BME280;61787;42.022;23.078;2022-10-23T05:57:49;97541.69;;;10.42;92.26
20015;BME280;61787;42.022;23.078;2022-10-23T05:58:51;97534.00;;;10.41;90.84
20015;BME280;61787;42.022;23.078;2022-10-23T05:59:53;97538.38;;;10.37;91.17
20015;BME280;61787;42.022;23.078;2022-10-23T06:00:56;97537.13;;;10.34;90.62
20015;BME280;61787;42.022;23.078;2022-10-23T06:01:58;97540.28;;;10.45;91.37
20015;BME280;61787;42.022;23.078;2022-10-23T06:03:01;97540.28;;;10.53;90.58